KEIK

Details ICAO KEIK
Name ERIE MUNICIPAL
Region United States
Timezone America/Denver (UTC-7.0)
Plans Departing 5
Arriving 2
Stats Elevation 5,130 ft / 1,564 m (AMSL)
Location 40.010220° -105.047918°
Runways 2
Magnetic Variation 8.272° E
Sunrise 2017-12-12 14:14:24 UTC / 2017-12-12 07:14:24 Local
Sunset 2017-12-12 23:36:34 UTC / 2017-12-12 16:36:34 Local
Advertisement - Login to hide

Runways

ID Width Length Bearing (true) Bearing (mag) Surface Threshold Offset Overrun Length
09 50 ft / 15 m 2,246 ft / 685 m 105.47° 97.20° Asphalt 0 ft / 0 m 0 ft / 0 m
15 60 ft / 18 m 4,706 ft / 1,434 m 167.36° 159.09° Concrete 0 ft / 0 m 0 ft / 0 m
27 50 ft / 15 m 2,246 ft / 685 m 285.47° 277.20° Asphalt 0 ft / 0 m 0 ft / 0 m
33 60 ft / 18 m 4,706 ft / 1,434 m 347.37° 339.10° Concrete 0 ft / 0 m 0 ft / 0 m

Map

Weather


0- 5 10 15 20 25 30 35+ Temperature / ° C

Clouds and Precipitation
Forecast for 2017-12-13 00:00 UTC. Updated 7 minutes ago

Ground ~20,000 ft ~40,000 ft Winds

METAR

KEIK 122118Z AUTO 00000KT 10SM CLR 18/M10 A3023 RMK AO2 T01751099

TAF

Not found

Frequencies

Recorded 133.82 MHz AWOS 3
Approach 126.10 MHz DENVER APP/DEP
Unicom 123.00 MHz CTAF/UNICOM
Warning: Do not use this data for real-world aviation or navigation. No guarantee of current accuracy is given.